sensor_id;sensor_type;location;lat;lon;timestamp;P1;durP1;ratioP1;P2;durP2;ratioP2
73898;SDS011;62234;50.892;12.724;2023-08-07T00:01:06;1.50;;;1.20;;
73898;SDS011;62234;50.892;12.724;2023-08-07T00:03:32;1.50;;;0.98;;
73898;SDS011;62234;50.892;12.724;2023-08-07T00:06:00;1.20;;;1.10;;
73898;SDS011;62234;50.892;12.724;2023-08-07T00:08:26;0.88;;;0.73;;
73898;SDS011;62234;50.892;12.724;2023-08-07T00:10:52;2.92;;;1.02;;
73898;SDS011;62234;50.892;12.724;2023-08-07T00:13:18;2.30;;;1.35;;
73898;SDS011;62234;50.892;12.724;2023-08-07T00:15:44;3.63;;;1.40;;
73898;SDS011;62234;50.892;12.724;2023-08-07T00:18:10;1.30;;;1.13;;
73898;SDS011;62234;50.892;12.724;2023-08-07T00:20:36;1.50;;;1.40;;
73898;SDS011;62234;50.892;12.724;2023-08-07T00:23:02;2.10;;;1.90;;
73898;SDS011;62234;50.892;12.724;2023-08-07T00:25:28;3.42;;;2.33;;
73898;SDS011;62234;50.892;12.724;2023-08-07T00:27:54;4.03;;;2.35;;
73898;SDS011;62234;50.892;12.724;2023-08-07T00:30:20;3.42;;;1.55;;
73898;SDS011;62234;50.892;12.724;2023-08-07T00:32:46;1.98;;;1.63;;
73898;SDS011;62234;50.892;12.724;2023-08-07T00:35:11;1.98;;;1.60;;
73898;SDS011;62234;50.892;12.724;2023-08-07T00:37:37;3.47;;;1.60;;
73898;SDS011;62234;50.892;12.724;2023-08-07T00:40:03;2.72;;;1.58;;
73898;SDS011;62234;50.892;12.724;2023-08-07T00:42:29;1.35;;;1.20;;
73898;SDS011;62234;50.892;12.724;2023-08-07T00:44:55;1.48;;;1.38;;
73898;SDS011;62234;50.892;12.724;2023-08-07T00:47:21;1.70;;;1.60;;
73898;SDS011;62234;50.892;12.724;2023-08-07T00:49:48;1.60;;;1.50;;
73898;SDS011;62234;50.892;12.724;2023-08-07T00:52:14;1.20;;;1.10;;
73898;SDS011;62234;50.892;12.724;2023-08-07T00:54:40;1.50;;;1.40;;
73898;SDS011;62234;50.892;12.724;2023-08-07T00:57:12;1.73;;;1.42;;
73898;SDS011;62234;50.892;12.724;2023-08-07T00:59:40;2.03;;;1.40;;
73898;SDS011;62234;50.892;12.724;2023-08-07T01:02:06;1.20;;;1.10;;
73898;SDS011;62234;50.892;12.724;2023-08-07T01:04:32;10.95;;;1.77;;
73898;SDS011;62234;50.892;12.724;2023-08-07T01:06:58;1.30;;;1.20;;
73898;SDS011;62234;50.892;12.724;2023-08-07T01:09:24;2.97;;;1.17;;
73898;SDS011;62234;50.892;12.724;2023-08-07T01:11:52;1.55;;;1.45;;
73898;SDS011;62234;50.892;12.724;2023-08-07T01:17:14;1.30;;;1.15;;
73898;SDS011;62234;50.892;12.724;2023-08-07T01:19:40;1.23;;;1.13;;
73898;SDS011;62234;50.892;12.724;2023-08-07T01:22:10;3.08;;;2.03;;
73898;SDS011;62234;50.892;12.724;2023-08-07T01:27:19;1.38;;;1.27;;
73898;SDS011;62234;50.892;12.724;2023-08-07T01:32:13;1.98;;;1.42;;
73898;SDS011;62234;50.892;12.724;2023-08-07T01:34:41;1.77;;;1.33;;
73898;SDS011;62234;50.892;12.724;2023-08-07T01:37:07;2.03;;;1.52;;
73898;SDS011;62234;50.892;12.724;2023-08-07T01:39:35;1.77;;;1.65;;
73898;SDS011;62234;50.892;12.724;2023-08-07T01:42:01;2.25;;;1.42;;
73898;SDS011;62234;50.892;12.724;2023-08-07T01:44:27;1.20;;;1.08;;
73898;SDS011;62234;50.892;12.724;2023-08-07T01:46:53;1.23;;;1.13;;
73898;SDS011;62234;50.892;12.724;2023-08-07T01:49:19;2.33;;;1.80;;
73898;SDS011;62234;50.892;12.724;2023-08-07T01:51:45;1.85;;;1.55;;
73898;SDS011;62234;50.892;12.724;2023-08-07T01:54:11;1.67;;;1.58;;
73898;SDS011;62234;50.892;12.724;2023-08-07T01:56:37;1.50;;;1.40;;
73898;SDS011;62234;50.892;12.724;2023-08-07T01:59:03;2.55;;;1.67;;
73898;SDS011;62234;50.892;12.724;2023-08-07T02:01:29;1.42;;;1.30;;
73898;SDS011;62234;50.892;12.724;2023-08-07T02:03:55;2.25;;;2.05;;
73898;SDS011;62234;50.892;12.724;2023-08-07T02:06:21;4.50;;;1.95;;
73898;SDS011;62234;50.892;12.724;2023-08-07T02:08:47;1.75;;;1.52;;
73898;SDS011;62234;50.892;12.724;2023-08-07T02:11:12;2.03;;;1.85;;
73898;SDS011;62234;50.892;12.724;2023-08-07T02:13:38;1.67;;;1.48;;
73898;SDS011;62234;50.892;12.724;2023-08-07T02:16:04;4.50;;;1.90;;
73898;SDS011;62234;50.892;12.724;2023-08-07T02:18:30;2.75;;;2.22;;
73898;SDS011;62234;50.892;12.724;2023-08-07T02:20:56;4.72;;;1.95;;
73898;SDS011;62234;50.892;12.724;2023-08-07T02:23:22;5.65;;;1.63;;
73898;SDS011;62234;50.892;12.724;2023-08-07T02:25:48;3.42;;;1.67;;
73898;SDS011;62234;50.892;12.724;2023-08-07T02:28:14;2.22;;;1.92;;
73898;SDS011;62234;50.892;12.724;2023-08-07T02:30:40;2.40;;;1.58;;
73898;SDS011;62234;50.892;12.724;2023-08-07T02:33:06;1.65;;;1.55;;
73898;SDS011;62234;50.892;12.724;2023-08-07T02:35:32;2.13;;;1.92;;
73898;SDS011;62234;50.892;12.724;2023-08-07T02:37:58;2.42;;;2.13;;
73898;SDS011;62234;50.892;12.724;2023-08-07T02:40:24;3.53;;;1.90;;
73898;SDS011;62234;50.892;12.724;2023-08-07T02:42:50;2.83;;;2.05;;
73898;SDS011;62234;50.892;12.724;2023-08-07T02:45:16;1.98;;;1.50;;
73898;SDS011;62234;50.892;12.724;2023-08-07T02:47:42;2.80;;;1.75;;
73898;SDS011;62234;50.892;12.724;2023-08-07T02:50:08;2.13;;;1.58;;
73898;SDS011;62234;50.892;12.724;2023-08-07T02:52:34;3.78;;;2.58;;
73898;SDS011;62234;50.892;12.724;2023-08-07T02:55:00;2.15;;;1.90;;
73898;SDS011;62234;50.892;12.724;2023-08-07T02:57:26;5.32;;;1.80;;
73898;SDS011;62234;50.892;12.724;2023-08-07T02:59:52;4.70;;;1.90;;
73898;SDS011;62234;50.892;12.724;2023-08-07T03:02:18;2.50;;;2.15;;
73898;SDS011;62234;50.892;12.724;2023-08-07T03:04:44;4.28;;;2.17;;
73898;SDS011;62234;50.892;12.724;2023-08-07T03:07:10;1.70;;;1.55;;
73898;SDS011;62234;50.892;12.724;2023-08-07T03:09:36;3.08;;;1.75;;
73898;SDS011;62234;50.892;12.724;2023-08-07T03:12:02;2.45;;;1.90;;
73898;SDS011;62234;50.892;12.724;2023-08-07T03:14:29;2.45;;;1.90;;
73898;SDS011;62234;50.892;12.724;2023-08-07T03:16:55;5.90;;;2.47;;
73898;SDS011;62234;50.892;12.724;2023-08-07T03:19:21;3.25;;;2.17;;
73898;SDS011;62234;50.892;12.724;2023-08-07T03:21:47;4.53;;;2.00;;
73898;SDS011;62234;50.892;12.724;2023-08-07T03:24:13;2.60;;;2.38;;
73898;SDS011;62234;50.892;12.724;2023-08-07T03:26:38;3.17;;;2.65;;
73898;SDS011;62234;50.892;12.724;2023-08-07T03:29:05;3.22;;;1.80;;
73898;SDS011;62234;50.892;12.724;2023-08-07T03:31:31;2.70;;;2.10;;
73898;SDS011;62234;50.892;12.724;2023-08-07T03:33:57;4.75;;;2.50;;
73898;SDS011;62234;50.892;12.724;2023-08-07T03:36:23;3.00;;;2.60;;
73898;SDS011;62234;50.892;12.724;2023-08-07T03:38:49;3.78;;;2.10;;
73898;SDS011;62234;50.892;12.724;2023-08-07T03:41:15;3.17;;;2.05;;
73898;SDS011;62234;50.892;12.724;2023-08-07T03:43:41;2.72;;;2.50;;
73898;SDS011;62234;50.892;12.724;2023-08-07T03:46:07;5.60;;;3.00;;
73898;SDS011;62234;50.892;12.724;2023-08-07T03:48:33;3.85;;;2.63;;
73898;SDS011;62234;50.892;12.724;2023-08-07T03:51:02;5.65;;;2.60;;
73898;SDS011;62234;50.892;12.724;2023-08-07T03:53:29;5.18;;;2.92;;
73898;SDS011;62234;50.892;12.724;2023-08-07T03:55:55;6.90;;;2.38;;
73898;SDS011;62234;50.892;12.724;2023-08-07T03:58:20;2.92;;;2.33;;
73898;SDS011;62234;50.892;12.724;2023-08-07T04:00:46;5.72;;;2.50;;
73898;SDS011;62234;50.892;12.724;2023-08-07T04:03:12;2.60;;;2.40;;
73898;SDS011;62234;50.892;12.724;2023-08-07T04:05:38;6.35;;;2.55;;
73898;SDS011;62234;50.892;12.724;2023-08-07T04:08:04;2.85;;;2.08;;
73898;SDS011;62234;50.892;12.724;2023-08-07T04:10:30;5.10;;;2.38;;
73898;SDS011;62234;50.892;12.724;2023-08-07T04:12:56;3.58;;;2.00;;
73898;SDS011;62234;50.892;12.724;2023-08-07T04:15:22;2.60;;;2.10;;
73898;SDS011;62234;50.892;12.724;2023-08-07T04:17:48;1.98;;;1.73;;
73898;SDS011;62234;50.892;12.724;2023-08-07T04:20:14;3.35;;;2.38;;
73898;SDS011;62234;50.892;12.724;2023-08-07T04:22:40;2.55;;;1.90;;
73898;SDS011;62234;50.892;12.724;2023-08-07T04:25:06;2.97;;;1.83;;
73898;SDS011;62234;50.892;12.724;2023-08-07T04:27:32;2.53;;;1.75;;
73898;SDS011;62234;50.892;12.724;2023-08-07T04:29:58;2.42;;;1.30;;
73898;SDS011;62234;50.892;12.724;2023-08-07T04:32:24;1.98;;;1.55;;
73898;SDS011;62234;50.892;12.724;2023-08-07T04:34:50;1.40;;;1.30;;
73898;SDS011;62234;50.892;12.724;2023-08-07T04:37:16;1.42;;;1.25;;
73898;SDS011;62234;50.892;12.724;2023-08-07T04:39:42;1.38;;;1.27;;
73898;SDS011;62234;50.892;12.724;2023-08-07T04:42:07;2.97;;;1.40;;
73898;SDS011;62234;50.892;12.724;2023-08-07T04:44:33;1.80;;;1.15;;
73898;SDS011;62234;50.892;12.724;2023-08-07T04:46:59;1.80;;;1.15;;
73898;SDS011;62234;50.892;12.724;2023-08-07T04:49:25;2.83;;;1.52;;
73898;SDS011;62234;50.892;12.724;2023-08-07T04:51:51;0.93;;;0.93;;
73898;SDS011;62234;50.892;12.724;2023-08-07T04:54:17;1.10;;;0.98;;
73898;SDS011;62234;50.892;12.724;2023-08-07T04:56:43;2.22;;;1.08;;
73898;SDS011;62234;50.892;12.724;2023-08-07T04:59:09;1.73;;;1.30;;
73898;SDS011;62234;50.892;12.724;2023-08-07T05:01:35;3.20;;;1.20;;
73898;SDS011;62234;50.892;12.724;2023-08-07T05:04:01;1.35;;;1.20;;
73898;SDS011;62234;50.892;12.724;2023-08-07T05:06:27;1.55;;;0.93;;
73898;SDS011;62234;50.892;12.724;2023-08-07T05:08:53;2.92;;;1.15;;
73898;SDS011;62234;50.892;12.724;2023-08-07T05:11:19;1.55;;;0.85;;
73898;SDS011;62234;50.892;12.724;2023-08-07T05:13:45;2.35;;;1.20;;
73898;SDS011;62234;50.892;12.724;2023-08-07T05:16:11;2.97;;;0.80;;
73898;SDS011;62234;50.892;12.724;2023-08-07T05:18:37;2.35;;;0.88;;
73898;SDS011;62234;50.892;12.724;2023-08-07T05:21:03;1.52;;;1.20;;
73898;SDS011;62234;50.892;12.724;2023-08-07T05:23:29;3.40;;;1.08;;
73898;SDS011;62234;50.892;12.724;2023-08-07T05:25:56;2.40;;;1.13;;
73898;SDS011;62234;50.892;12.724;2023-08-07T05:28:21;1.38;;;1.08;;
73898;SDS011;62234;50.892;12.724;2023-08-07T05:30:48;2.13;;;0.88;;
73898;SDS011;62234;50.892;12.724;2023-08-07T05:33:14;0.80;;;0.80;;
73898;SDS011;62234;50.892;12.724;2023-08-07T05:35:40;1.58;;;0.80;;
73898;SDS011;62234;50.892;12.724;2023-08-07T05:38:06;1.83;;;1.00;;
73898;SDS011;62234;50.892;12.724;2023-08-07T05:40:39;1.17;;;0.90;;
73898;SDS011;62234;50.892;12.724;2023-08-07T05:43:09;0.60;;;0.52;;
73898;SDS011;62234;50.892;12.724;2023-08-07T05:45:36;2.15;;;1.08;;
73898;SDS011;62234;50.892;12.724;2023-08-07T05:48:02;4.28;;;1.00;;
73898;SDS011;62234;50.892;12.724;2023-08-07T05:50:28;2.25;;;0.68;;
73898;SDS011;62234;50.892;12.724;2023-08-07T05:52:54;2.75;;;0.80;;
73898;SDS011;62234;50.892;12.724;2023-08-07T05:55:20;1.60;;;0.57;;
73898;SDS011;62234;50.892;12.724;2023-08-07T05:57:46;3.35;;;0.95;;
73898;SDS011;62234;50.892;12.724;2023-08-07T06:00:15;1.02;;;0.60;;
73898;SDS011;62234;50.892;12.724;2023-08-07T06:02:43;1.13;;;0.50;;
73898;SDS011;62234;50.892;12.724;2023-08-07T06:05:09;2.35;;;0.65;;
73898;SDS011;62234;50.892;12.724;2023-08-07T06:07:37;1.45;;;0.60;;
73898;SDS011;62234;50.892;12.724;2023-08-07T06:10:06;0.75;;;0.75;;
73898;SDS011;62234;50.892;12.724;2023-08-07T06:12:32;0.60;;;0.60;;
73898;SDS011;62234;50.892;12.724;2023-08-07T06:14:58;0.52;;;0.52;;
73898;SDS011;62234;50.892;12.724;2023-08-07T06:17:30;0.60;;;0.40;;
73898;SDS011;62234;50.892;12.724;2023-08-07T06:19:56;0.50;;;0.50;;
73898;SDS011;62234;50.892;12.724;2023-08-07T06:22:22;2.10;;;0.55;;
73898;SDS011;62234;50.892;12.724;2023-08-07T06:24:48;0.63;;;0.60;;
73898;SDS011;62234;50.892;12.724;2023-08-07T06:27:14;1.13;;;0.77;;
73898;SDS011;62234;50.892;12.724;2023-08-07T06:29:40;0.73;;;0.32;;
73898;SDS011;62234;50.892;12.724;2023-08-07T06:32:06;0.50;;;0.43;;
73898;SDS011;62234;50.892;12.724;2023-08-07T06:34:32;2.42;;;0.47;;
73898;SDS011;62234;50.892;12.724;2023-08-07T06:36:58;0.50;;;0.50;;
73898;SDS011;62234;50.892;12.724;2023-08-07T06:39:24;1.17;;;0.47;;
73898;SDS011;62234;50.892;12.724;2023-08-07T06:41:50;0.60;;;0.30;;
73898;SDS011;62234;50.892;12.724;2023-08-07T06:44:16;1.00;;;0.60;;
73898;SDS011;62234;50.892;12.724;2023-08-07T06:46:42;0.38;;;0.30;;
73898;SDS011;62234;50.892;12.724;2023-08-07T06:49:08;1.33;;;0.60;;
73898;SDS011;62234;50.892;12.724;2023-08-07T06:51:34;0.50;;;0.50;;
73898;SDS011;62234;50.892;12.724;2023-08-07T06:54:00;0.98;;;0.40;;
73898;SDS011;62234;50.892;12.724;2023-08-07T06:56:26;0.95;;;0.65;;
73898;SDS011;62234;50.892;12.724;2023-08-07T06:58:52;1.45;;;0.40;;
73898;SDS011;62234;50.892;12.724;2023-08-07T07:01:18;1.20;;;0.50;;
73898;SDS011;62234;50.892;12.724;2023-08-07T07:03:44;0.50;;;0.47;;
73898;SDS011;62234;50.892;12.724;2023-08-07T07:06:11;0.60;;;0.32;;
73898;SDS011;62234;50.892;12.724;2023-08-07T07:08:38;0.70;;;0.40;;
73898;SDS011;62234;50.892;12.724;2023-08-07T07:11:04;0.70;;;0.70;;
73898;SDS011;62234;50.892;12.724;2023-08-07T07:13:33;1.50;;;0.40;;
73898;SDS011;62234;50.892;12.724;2023-08-07T07:37:26;0.60;;;0.40;;
73898;SDS011;62234;50.892;12.724;2023-08-07T07:40:07;1.90;;;0.45;;
73898;SDS011;62234;50.892;12.724;2023-08-07T07:45:46;0.63;;;0.45;;
73898;SDS011;62234;50.892;12.724;2023-08-07T07:48:44;0.60;;;0.30;;
73898;SDS011;62234;50.892;12.724;2023-08-07T07:51:22;1.80;;;0.43;;
73898;SDS011;62234;50.892;12.724;2023-08-07T08:27:29;0.68;;;0.30;;
73898;SDS011;62234;50.892;12.724;2023-08-07T08:35:10;0.20;;;0.20;;
73898;SDS011;62234;50.892;12.724;2023-08-07T08:41:05;0.30;;;0.30;;
73898;SDS011;62234;50.892;12.724;2023-08-07T08:46:42;0.60;;;0.50;;
73898;SDS011;62234;50.892;12.724;2023-08-07T08:49:18;0.40;;;0.32;;
73898;SDS011;62234;50.892;12.724;2023-08-07T08:52:07;0.60;;;0.40;;
73898;SDS011;62234;50.892;12.724;2023-08-07T08:54:48;1.10;;;0.60;;
73898;SDS011;62234;50.892;12.724;2023-08-07T09:16:12;1.08;;;0.50;;
73898;SDS011;62234;50.892;12.724;2023-08-07T10:52:51;0.28;;;0.28;;
73898;SDS011;62234;50.892;12.724;2023-08-07T10:55:26;0.10;;;0.10;;
73898;SDS011;62234;50.892;12.724;2023-08-07T10:57:53;0.98;;;0.30;;
73898;SDS011;62234;50.892;12.724;2023-08-07T11:06:33;0.57;;;0.20;;
73898;SDS011;62234;50.892;12.724;2023-08-07T11:15:15;0.25;;;0.20;;
73898;SDS011;62234;50.892;12.724;2023-08-07T11:18:01;1.10;;;0.20;;
73898;SDS011;62234;50.892;12.724;2023-08-07T11:20:46;0.10;;;0.10;;
73898;SDS011;62234;50.892;12.724;2023-08-07T11:23:40;0.20;;;0.15;;
73898;SDS011;62234;50.892;12.724;2023-08-07T11:26:23;0.52;;;0.20;;
73898;SDS011;62234;50.892;12.724;2023-08-07T11:29:07;2.75;;;0.28;;
73898;SDS011;62234;50.892;12.724;2023-08-07T11:32:02;1.65;;;0.10;;
73898;SDS011;62234;50.892;12.724;2023-08-07T11:34:50;0.32;;;0.10;;
73898;SDS011;62234;50.892;12.724;2023-08-07T11:37:51;0.20;;;0.20;;
73898;SDS011;62234;50.892;12.724;2023-08-07T11:40:37;0.10;;;0.10;;
73898;SDS011;62234;50.892;12.724;2023-08-07T11:43:16;0.28;;;0.10;;
73898;SDS011;62234;50.892;12.724;2023-08-07T11:45:47;1.58;;;0.10;;
73898;SDS011;62234;50.892;12.724;2023-08-07T11:48:41;0.13;;;0.13;;
73898;SDS011;62234;50.892;12.724;2023-08-07T11:51:23;5.60;;;0.30;;
73898;SDS011;62234;50.892;12.724;2023-08-07T11:53:55;0.32;;;0.00;;
73898;SDS011;62234;50.892;12.724;2023-08-07T11:56:23;0.90;;;0.10;;
73898;SDS011;62234;50.892;12.724;2023-08-07T11:59:58;0.00;;;0.00;;
73898;SDS011;62234;50.892;12.724;2023-08-07T12:02:16;0.40;;;0.10;;
73898;SDS011;62234;50.892;12.724;2023-08-07T12:04:42;1.20;;;0.00;;
73898;SDS011;62234;50.892;12.724;2023-08-07T12:07:09;0.20;;;0.13;;
73898;SDS011;62234;50.892;12.724;2023-08-07T12:09:36;0.75;;;0.00;;
73898;SDS011;62234;50.892;12.724;2023-08-07T12:12:03;0.10;;;0.10;;
73898;SDS011;62234;50.892;12.724;2023-08-07T12:14:32;0.43;;;0.30;;
73898;SDS011;62234;50.892;12.724;2023-08-07T12:17:00;0.13;;;0.00;;
73898;SDS011;62234;50.892;12.724;2023-08-07T12:19:35;0.35;;;0.10;;
73898;SDS011;62234;50.892;12.724;2023-08-07T12:22:01;0.20;;;0.05;;
73898;SDS011;62234;50.892;12.724;2023-08-07T12:24:29;0.32;;;0.10;;
73898;SDS011;62234;50.892;12.724;2023-08-07T12:27:00;0.30;;;0.00;;
73898;SDS011;62234;50.892;12.724;2023-08-07T12:29:30;0.52;;;0.10;;
73898;SDS011;62234;50.892;12.724;2023-08-07T12:32:02;1.65;;;0.10;;
73898;SDS011;62234;50.892;12.724;2023-08-07T12:34:41;0.00;;;0.00;;
73898;SDS011;62234;50.892;12.724;2023-08-07T12:37:15;3.40;;;0.10;;
73898;SDS011;62234;50.892;12.724;2023-08-07T12:39:41;0.75;;;0.15;;
73898;SDS011;62234;50.892;12.724;2023-08-07T12:42:10;0.00;;;0.00;;
73898;SDS011;62234;50.892;12.724;2023-08-07T12:44:36;0.00;;;0.00;;
73898;SDS011;62234;50.892;12.724;2023-08-07T12:47:02;0.10;;;0.00;;
73898;SDS011;62234;50.892;12.724;2023-08-07T12:49:28;0.82;;;0.10;;
73898;SDS011;62234;50.892;12.724;2023-08-07T12:51:54;0.20;;;0.10;;
73898;SDS011;62234;50.892;12.724;2023-08-07T12:54:22;0.98;;;0.10;;
73898;SDS011;62234;50.892;12.724;2023-08-07T12:56:49;0.10;;;0.08;;
73898;SDS011;62234;50.892;12.724;2023-08-07T12:59:15;1.00;;;0.10;;
73898;SDS011;62234;50.892;12.724;2023-08-07T13:01:41;0.10;;;0.10;;
73898;SDS011;62234;50.892;12.724;2023-08-07T13:04:08;0.10;;;0.10;;
73898;SDS011;62234;50.892;12.724;2023-08-07T13:06:34;0.25;;;0.17;;
73898;SDS011;62234;50.892;12.724;2023-08-07T13:09:00;0.15;;;0.05;;
73898;SDS011;62234;50.892;12.724;2023-08-07T13:11:25;0.08;;;0.08;;
73898;SDS011;62234;50.892;12.724;2023-08-07T13:13:51;1.45;;;0.08;;
73898;SDS011;62234;50.892;12.724;2023-08-07T13:16:17;1.27;;;0.00;;
73898;SDS011;62234;50.892;12.724;2023-08-07T13:18:43;0.63;;;0.10;;
73898;SDS011;62234;50.892;12.724;2023-08-07T13:21:09;0.03;;;0.03;;
73898;SDS011;62234;50.892;12.724;2023-08-07T13:23:35;0.17;;;0.17;;
73898;SDS011;62234;50.892;12.724;2023-08-07T13:26:01;0.10;;;0.00;;
73898;SDS011;62234;50.892;12.724;2023-08-07T13:28:27;0.10;;;0.00;;
73898;SDS011;62234;50.892;12.724;2023-08-07T13:30:53;0.00;;;0.00;;
73898;SDS011;62234;50.892;12.724;2023-08-07T13:33:21;0.95;;;0.17;;
73898;SDS011;62234;50.892;12.724;2023-08-07T13:35:47;0.47;;;0.00;;
73898;SDS011;62234;50.892;12.724;2023-08-07T13:38:13;1.38;;;0.10;;
73898;SDS011;62234;50.892;12.724;2023-08-07T13:40:40;0.08;;;0.05;;
73898;SDS011;62234;50.892;12.724;2023-08-07T13:43:07;1.65;;;0.10;;
73898;SDS011;62234;50.892;12.724;2023-08-07T13:45:34;0.10;;;0.08;;
73898;SDS011;62234;50.892;12.724;2023-08-07T13:48:00;2.40;;;0.20;;
73898;SDS011;62234;50.892;12.724;2023-08-07T13:50:27;0.03;;;0.03;;
73898;SDS011;62234;50.892;12.724;2023-08-07T13:52:53;0.85;;;0.10;;
73898;SDS011;62234;50.892;12.724;2023-08-07T13:55:19;1.65;;;0.10;;
73898;SDS011;62234;50.892;12.724;2023-08-07T13:57:45;0.32;;;0.10;;
73898;SDS011;62234;50.892;12.724;2023-08-07T14:00:11;1.02;;;0.00;;
73898;SDS011;62234;50.892;12.724;2023-08-07T14:02:37;0.00;;;0.00;;
73898;SDS011;62234;50.892;12.724;2023-08-07T14:05:03;0.22;;;0.10;;
73898;SDS011;62234;50.892;12.724;2023-08-07T14:07:29;0.17;;;0.08;;
73898;SDS011;62234;50.892;12.724;2023-08-07T14:09:55;0.20;;;0.15;;
73898;SDS011;62234;50.892;12.724;2023-08-07T14:12:21;0.10;;;0.10;;
73898;SDS011;62234;50.892;12.724;2023-08-07T14:14:47;0.20;;;0.20;;
73898;SDS011;62234;50.892;12.724;2023-08-07T14:17:13;0.30;;;0.30;;
73898;SDS011;62234;50.892;12.724;2023-08-07T14:19:39;0.17;;;0.10;;
73898;SDS011;62234;50.892;12.724;2023-08-07T14:22:05;0.25;;;0.20;;
73898;SDS011;62234;50.892;12.724;2023-08-07T14:24:31;0.22;;;0.10;;
73898;SDS011;62234;50.892;12.724;2023-08-07T14:26:57;2.47;;;0.43;;
73898;SDS011;62234;50.892;12.724;2023-08-07T14:29:23;0.30;;;0.10;;
73898;SDS011;62234;50.892;12.724;2023-08-07T14:31:48;1.52;;;0.32;;
73898;SDS011;62234;50.892;12.724;2023-08-07T14:34:14;0.52;;;0.20;;
73898;SDS011;62234;50.892;12.724;2023-08-07T14:36:40;0.85;;;0.30;;
73898;SDS011;62234;50.892;12.724;2023-08-07T14:39:06;1.45;;;0.40;;
73898;SDS011;62234;50.892;12.724;2023-08-07T14:41:32;1.63;;;0.40;;
73898;SDS011;62234;50.892;12.724;2023-08-07T14:43:58;0.98;;;0.35;;
73898;SDS011;62234;50.892;12.724;2023-08-07T14:46:24;0.43;;;0.43;;
73898;SDS011;62234;50.892;12.724;2023-08-07T14:48:50;4.53;;;0.40;;
73898;SDS011;62234;50.892;12.724;2023-08-07T14:51:16;0.88;;;0.52;;
73898;SDS011;62234;50.892;12.724;2023-08-07T14:53:42;1.50;;;1.15;;
73898;SDS011;62234;50.892;12.724;2023-08-07T14:56:08;1.05;;;0.70;;
73898;SDS011;62234;50.892;12.724;2023-08-07T14:58:34;0.77;;;0.60;;
73898;SDS011;62234;50.892;12.724;2023-08-07T15:01:00;1.92;;;0.70;;
73898;SDS011;62234;50.892;12.724;2023-08-07T15:03:26;1.45;;;0.82;;
73898;SDS011;62234;50.892;12.724;2023-08-07T15:05:52;1.42;;;0.57;;
73898;SDS011;62234;50.892;12.724;2023-08-07T15:08:18;2.83;;;1.00;;
73898;SDS011;62234;50.892;12.724;2023-08-07T15:10:43;0.70;;;0.50;;
73898;SDS011;62234;50.892;12.724;2023-08-07T15:13:09;1.23;;;0.55;;
73898;SDS011;62234;50.892;12.724;2023-08-07T15:15:35;0.30;;;0.20;;
73898;SDS011;62234;50.892;12.724;2023-08-07T15:18:01;1.10;;;0.30;;
73898;SDS011;62234;50.892;12.724;2023-08-07T15:20:29;1.48;;;0.28;;
73898;SDS011;62234;50.892;12.724;2023-08-07T15:22:55;0.75;;;0.10;;
73898;SDS011;62234;50.892;12.724;2023-08-07T15:25:21;0.65;;;0.20;;
73898;SDS011;62234;50.892;12.724;2023-08-07T15:27:47;0.13;;;0.13;;
73898;SDS011;62234;50.892;12.724;2023-08-07T15:30:13;0.30;;;0.30;;
73898;SDS011;62234;50.892;12.724;2023-08-07T15:32:39;0.25;;;0.22;;
73898;SDS011;62234;50.892;12.724;2023-08-07T15:35:06;0.43;;;0.20;;
73898;SDS011;62234;50.892;12.724;2023-08-07T15:37:32;0.50;;;0.30;;
73898;SDS011;62234;50.892;12.724;2023-08-07T15:39:58;0.90;;;0.28;;
73898;SDS011;62234;50.892;12.724;2023-08-07T15:42:24;1.10;;;0.28;;
73898;SDS011;62234;50.892;12.724;2023-08-07T15:44:49;2.78;;;0.70;;
73898;SDS011;62234;50.892;12.724;2023-08-07T15:47:15;2.42;;;0.47;;
73898;SDS011;62234;50.892;12.724;2023-08-07T15:49:41;0.73;;;0.22;;
73898;SDS011;62234;50.892;12.724;2023-08-07T15:52:09;1.35;;;0.50;;
73898;SDS011;62234;50.892;12.724;2023-08-07T15:54:35;0.50;;;0.20;;
73898;SDS011;62234;50.892;12.724;2023-08-07T15:57:01;0.45;;;0.40;;
73898;SDS011;62234;50.892;12.724;2023-08-07T15:59:27;3.05;;;0.68;;
73898;SDS011;62234;50.892;12.724;2023-08-07T16:01:53;1.50;;;0.50;;
73898;SDS011;62234;50.892;12.724;2023-08-07T16:04:19;1.38;;;0.40;;
73898;SDS011;62234;50.892;12.724;2023-08-07T16:06:45;3.15;;;0.68;;
73898;SDS011;62234;50.892;12.724;2023-08-07T16:09:11;3.58;;;0.55;;
73898;SDS011;62234;50.892;12.724;2023-08-07T16:11:37;2.88;;;0.70;;
73898;SDS011;62234;50.892;12.724;2023-08-07T16:14:03;2.55;;;0.40;;
73898;SDS011;62234;50.892;12.724;2023-08-07T16:16:29;2.88;;;0.63;;
73898;SDS011;62234;50.892;12.724;2023-08-07T16:18:55;0.95;;;0.60;;
73898;SDS011;62234;50.892;12.724;2023-08-07T16:21:21;3.03;;;0.63;;
73898;SDS011;62234;50.892;12.724;2023-08-07T16:23:47;1.50;;;0.70;;
73898;SDS011;62234;50.892;12.724;2023-08-07T16:26:13;2.63;;;0.60;;
73898;SDS011;62234;50.892;12.724;2023-08-07T16:28:39;1.15;;;0.65;;
73898;SDS011;62234;50.892;12.724;2023-08-07T16:31:05;5.22;;;0.70;;
73898;SDS011;62234;50.892;12.724;2023-08-07T16:33:31;2.10;;;0.50;;
73898;SDS011;62234;50.892;12.724;2023-08-07T16:35:57;2.95;;;0.73;;
73898;SDS011;62234;50.892;12.724;2023-08-07T16:38:23;4.82;;;1.10;;
73898;SDS011;62234;50.892;12.724;2023-08-07T16:40:49;1.25;;;0.73;;
73898;SDS011;62234;50.892;12.724;2023-08-07T16:43:15;2.58;;;0.90;;
73898;SDS011;62234;50.892;12.724;2023-08-07T16:45:40;1.38;;;0.70;;
73898;SDS011;62234;50.892;12.724;2023-08-07T16:48:06;2.33;;;0.70;;
73898;SDS011;62234;50.892;12.724;2023-08-07T16:50:32;5.22;;;1.50;;
73898;SDS011;62234;50.892;12.724;2023-08-07T16:52:58;3.28;;;0.82;;
73898;SDS011;62234;50.892;12.724;2023-08-07T16:55:25;1.92;;;0.85;;
73898;SDS011;62234;50.892;12.724;2023-08-07T16:57:51;2.15;;;0.85;;
73898;SDS011;62234;50.892;12.724;2023-08-07T17:00:19;3.65;;;1.00;;
73898;SDS011;62234;50.892;12.724;2023-08-07T17:02:46;3.40;;;1.00;;
73898;SDS011;62234;50.892;12.724;2023-08-07T17:05:13;2.17;;;0.82;;
73898;SDS011;62234;50.892;12.724;2023-08-07T17:07:39;2.75;;;1.20;;
73898;SDS011;62234;50.892;12.724;2023-08-07T17:10:05;3.60;;;0.98;;
73898;SDS011;62234;50.892;12.724;2023-08-07T17:12:35;3.15;;;0.95;;
73898;SDS011;62234;50.892;12.724;2023-08-07T17:15:01;2.95;;;0.90;;
73898;SDS011;62234;50.892;12.724;2023-08-07T17:17:27;3.78;;;0.80;;
73898;SDS011;62234;50.892;12.724;2023-08-07T17:19:53;2.38;;;0.90;;
73898;SDS011;62234;50.892;12.724;2023-08-07T17:22:19;1.80;;;1.20;;
73898;SDS011;62234;50.892;12.724;2023-08-07T17:24:45;9.25;;;1.40;;
73898;SDS011;62234;50.892;12.724;2023-08-07T17:27:11;3.20;;;1.10;;
73898;SDS011;62234;50.892;12.724;2023-08-07T17:29:37;4.28;;;1.42;;
73898;SDS011;62234;50.892;12.724;2023-08-07T17:32:04;3.20;;;1.00;;
73898;SDS011;62234;50.892;12.724;2023-08-07T17:34:31;3.17;;;1.13;;
73898;SDS011;62234;50.892;12.724;2023-08-07T17:36:57;4.40;;;1.30;;
73898;SDS011;62234;50.892;12.724;2023-08-07T17:39:23;3.20;;;1.00;;
73898;SDS011;62234;50.892;12.724;2023-08-07T17:41:48;6.50;;;1.60;;
73898;SDS011;62234;50.892;12.724;2023-08-07T17:44:15;1.85;;;1.15;;
73898;SDS011;62234;50.892;12.724;2023-08-07T17:46:42;4.00;;;1.38;;
73898;SDS011;62234;50.892;12.724;2023-08-07T17:49:08;4.20;;;1.33;;
73898;SDS011;62234;50.892;12.724;2023-08-07T17:51:34;5.03;;;1.05;;
73898;SDS011;62234;50.892;12.724;2023-08-07T17:53:59;2.78;;;1.10;;
73898;SDS011;62234;50.892;12.724;2023-08-07T17:56:25;12.25;;;2.83;;
73898;SDS011;62234;50.892;12.724;2023-08-07T17:58:51;2.13;;;1.17;;